createdAt,value
2022-10-23T00:01:00.444Z,100940.91
2022-10-23T00:03:27.017Z,100946.19
2022-10-23T00:05:53.592Z,100947.91
2022-10-23T00:08:20.146Z,100953.19
2022-10-23T00:10:46.798Z,100950.59
2022-10-23T00:13:13.394Z,100949.69
2022-10-23T00:15:39.995Z,100956.75
2022-10-23T00:18:06.654Z,100956.75
2022-10-23T00:20:33.226Z,100962.03
2022-10-23T00:22:59.958Z,100965.59
2022-10-23T00:25:26.530Z,100960.25
2022-10-23T00:27:53.115Z,100967.31
2022-10-23T00:30:19.811Z,100970.88
2022-10-23T00:32:46.362Z,100973.50
2022-10-23T00:35:12.933Z,100976.16
2022-10-23T00:37:39.622Z,100977.94
2022-10-23T00:40:06.948Z,100981.47
2022-10-23T00:42:33.612Z,100988.50
2022-10-23T00:45:16.373Z,100987.66
2022-10-23T00:47:42.959Z,100988.50
2022-10-23T00:50:09.647Z,100996.44
2022-10-23T00:52:37.571Z,100997.34
2022-10-23T00:55:04.466Z,100990.34
2022-10-23T00:57:31.003Z,100994.72
2022-10-23T00:59:57.681Z,100993.84
2022-10-23T01:02:24.343Z,101007.06
2022-10-23T01:04:51.030Z,101014.06
2022-10-23T01:07:27.537Z,101012.34
2022-10-23T01:10:16.505Z,101014.97
2022-10-23T01:12:46.109Z,101009.69
2022-10-23T01:15:21.983Z,101017.63
2022-10-23T01:17:50.091Z,101020.25
2022-10-23T01:20:50.628Z,101025.59
2022-10-23T01:23:29.381Z,101020.31
2022-10-23T01:26:35.306Z,101026.50
2022-10-23T01:29:05.331Z,101035.28
2022-10-23T01:31:42.533Z,101031.78
2022-10-23T01:34:21.212Z,101034.44
2022-10-23T01:36:48.938Z,101041.47
2022-10-23T01:39:23.495Z,101034.44
2022-10-23T01:41:58.679Z,101038.81
2022-10-23T01:44:44.828Z,101037.09
2022-10-23T01:47:11.652Z,101044.16
2022-10-23T01:49:39.239Z,101030.94
2022-10-23T01:52:08.663Z,101038.00
2022-10-23T01:54:36.495Z,101035.34
2022-10-23T01:57:03.496Z,101037.13
2022-10-23T01:59:32.819Z,101031.00
2022-10-23T02:01:59.481Z,101032.78
2022-10-23T02:04:36.463Z,101029.22
2022-10-23T02:07:05.276Z,101025.75
2022-10-23T02:09:32.219Z,101025.75
2022-10-23T02:12:02.491Z,101031.03
2022-10-23T02:14:41.081Z,101026.63
2022-10-23T02:17:16.539Z,101025.75
2022-10-23T02:19:45.584Z,101025.75
2022-10-23T02:22:38.915Z,101022.22
2022-10-23T02:25:17.734Z,101029.28
2022-10-23T02:27:49.133Z,101023.13
2022-10-23T02:30:16.817Z,101024.00
2022-10-23T02:32:46.584Z,101024.91
2022-10-23T02:35:13.432Z,101024.91
2022-10-23T02:37:40.326Z,101032.84
2022-10-23T02:40:07.697Z,101031.06
2022-10-23T02:42:46.275Z,101040.75
2022-10-23T02:45:24.609Z,101039.91
2022-10-23T02:48:13.012Z,101041.66
2022-10-23T02:50:42.411Z,101047.81
2022-10-23T02:53:37.824Z,101047.00
2022-10-23T02:56:09.596Z,101053.16
2022-10-23T02:58:56.578Z,101048.75
2022-10-23T03:01:26.741Z,101054.94
2022-10-23T03:04:03.284Z,101051.38
2022-10-23T03:06:29.835Z,101055.81
2022-10-23T03:09:00.819Z,101064.59
2022-10-23T03:11:27.445Z,101061.94
2022-10-23T03:13:54.034Z,101069.94
2022-10-23T03:16:20.588Z,101069.94
2022-10-23T03:18:47.335Z,101076.06
2022-10-23T03:21:13.984Z,101072.56
2022-10-23T03:23:40.569Z,101075.22
2022-10-23T03:26:07.261Z,101077.84
2022-10-23T03:28:35.509Z,101075.22
2022-10-23T03:31:02.595Z,101069.97
2022-10-23T03:33:30.119Z,101069.06
2022-10-23T03:35:56.716Z,101072.62
2022-10-23T03:38:23.341Z,101070.87
2022-10-23T03:40:49.896Z,101080.53
2022-10-23T03:43:16.543Z,101078.81
2022-10-23T03:45:43.100Z,101089.38
2022-10-23T03:48:09.664Z,101094.66
2022-10-23T03:50:36.393Z,101095.53
2022-10-23T03:53:02.965Z,101094.66
2022-10-23T03:55:29.702Z,101094.66
2022-10-23T03:57:56.313Z,101100.81
2022-10-23T04:00:22.873Z,101092.06
2022-10-23T04:02:49.564Z,101099.13
2022-10-23T04:05:16.224Z,101098.25
2022-10-23T04:07:42.775Z,101099.03
2022-10-23T04:10:09.720Z,101094.44
2022-10-23T04:12:36.303Z,101094.16
2022-10-23T04:15:02.951Z,101093.12
2022-10-23T04:17:29.539Z,101088.41
2022-10-23T04:19:56.392Z,101081.72
2022-10-23T04:22:25.961Z,101082.25
2022-10-23T04:24:54.162Z,101088.00
2022-10-23T04:27:20.811Z,101081.53
2022-10-23T04:29:47.378Z,101075.03
2022-10-23T04:32:14.103Z,101077.41
2022-10-23T04:34:40.632Z,101078.09
2022-10-23T04:37:07.226Z,101075.31
2022-10-23T04:39:33.791Z,101069.88
2022-10-23T04:42:00.374Z,101067.97
2022-10-23T04:44:26.926Z,101067.84
2022-10-23T04:46:53.526Z,101066.84
2022-10-23T04:49:20.084Z,101071.19
2022-10-23T04:51:46.653Z,101073.72
2022-10-23T04:54:13.254Z,101071.94
2022-10-23T04:56:39.820Z,101070.09
2022-10-23T04:59:06.520Z,101086.81
2022-10-23T05:01:33.179Z,101087.63
2022-10-23T05:03:59.835Z,101093.78
2022-10-23T05:06:26.479Z,101095.50
2022-10-23T05:08:53.076Z,101091.06
2022-10-23T05:11:19.823Z,101101.59
2022-10-23T05:13:46.392Z,101087.44
2022-10-23T05:16:13.954Z,101098.03
2022-10-23T05:18:46.851Z,101100.66
2022-10-23T05:21:15.799Z,101099.78
2022-10-23T05:23:42.923Z,101101.50
2022-10-23T05:26:09.513Z,101095.28
2022-10-23T05:28:36.216Z,101082.06
2022-10-23T05:31:06.483Z,101090.84
2022-10-23T05:33:33.088Z,101094.37
2022-10-23T05:35:59.635Z,101094.34
2022-10-23T05:38:27.019Z,101094.34
2022-10-23T05:40:53.718Z,101096.06
2022-10-23T05:43:20.262Z,101089.91
2022-10-23T05:45:46.840Z,101105.78
2022-10-23T05:48:30.129Z,101107.53
2022-10-23T05:51:07.985Z,101116.38
2022-10-23T05:53:40.091Z,101119.84
2022-10-23T05:56:09.078Z,101125.13
2022-10-23T05:58:35.661Z,101111.03
2022-10-23T06:01:09.293Z,101109.19
2022-10-23T06:03:36.331Z,101109.25
2022-10-23T06:06:02.909Z,101109.19
2022-10-23T06:08:30.353Z,101121.53
2022-10-23T06:10:57.010Z,101120.69
2022-10-23T06:13:23.589Z,101123.31
2022-10-23T06:15:50.187Z,101125.06
2022-10-23T06:18:16.730Z,101135.66
2022-10-23T06:20:43.342Z,101133.84
2022-10-23T06:23:09.891Z,101129.44
2022-10-23T06:25:36.625Z,101131.22
2022-10-23T06:28:03.179Z,101131.22
2022-10-23T06:30:29.880Z,101135.59
2022-10-23T06:32:56.599Z,101144.41
2022-10-23T06:35:23.171Z,101149.69
2022-10-23T06:37:49.712Z,101159.41
2022-10-23T06:40:16.307Z,101155.00
2022-10-23T06:42:43.057Z,101150.56
2022-10-23T06:45:09.928Z,101169.06
2022-10-23T06:47:36.488Z,101162.00
2022-10-23T06:50:03.172Z,101167.31
2022-10-23T06:52:47.887Z,101172.56
2022-10-23T06:55:14.870Z,101165.53
2022-10-23T06:57:41.912Z,101163.78
2022-10-23T07:00:09.396Z,101162.87
2022-10-23T07:02:36.015Z,101179.66
2022-10-23T07:05:02.561Z,101177.00
2022-10-23T07:07:31.999Z,101177.00
2022-10-23T07:09:58.690Z,101170.81
2022-10-23T07:12:25.302Z,101176.13
2022-10-23T07:14:51.983Z,101176.13
2022-10-23T07:17:18.601Z,101178.75
2022-10-23T07:19:46.585Z,101177.91
2022-10-23T07:22:15.756Z,101177.03
2022-10-23T07:24:42.720Z,101182.34
2022-10-23T07:27:09.687Z,101192.06
2022-10-23T07:29:36.441Z,101191.12
2022-10-23T07:32:04.507Z,101189.41
2022-10-23T07:34:32.079Z,101191.19
2022-10-23T07:36:58.689Z,101189.41
2022-10-23T07:39:25.330Z,101188.50
2022-10-23T07:41:51.888Z,101177.91
2022-10-23T07:44:18.496Z,101190.19
2022-10-23T07:46:45.074Z,101176.09
2022-10-23T07:49:11.669Z,101183.13
2022-10-23T07:51:38.251Z,101183.06
2022-10-23T07:54:04.916Z,101182.16
2022-10-23T07:56:31.580Z,101181.19
2022-10-23T07:58:58.148Z,101194.28
2022-10-23T08:01:32.446Z,101191.59
2022-10-23T08:03:59.495Z,101181.81
2022-10-23T08:06:26.044Z,101175.59
2022-10-23T08:08:52.718Z,101176.47
2022-10-23T08:11:24.940Z,101174.69
2022-10-23T08:13:52.470Z,101180.03
2022-10-23T08:16:19.081Z,101183.63
2022-10-23T08:18:45.645Z,101176.69
2022-10-23T08:21:12.323Z,101173.19
2022-10-23T08:23:38.895Z,101166.22
2022-10-23T08:26:06.064Z,101168.94
2022-10-23T08:28:32.796Z,101173.38
2022-10-23T08:30:59.502Z,101167.22
2022-10-23T08:33:26.210Z,101168.09
2022-10-23T08:35:52.782Z,101166.38
2022-10-23T08:38:19.386Z,101170.75
2022-10-23T08:40:47.119Z,101172.53
2022-10-23T08:43:24.308Z,101172.53
2022-10-23T08:45:51.722Z,101171.59
2022-10-23T08:48:35.562Z,101175.09
2022-10-23T08:51:06.461Z,101180.38
2022-10-23T08:53:50.742Z,101178.53
2022-10-23T08:56:27.008Z,101180.25
2022-10-23T08:59:28.086Z,101181.06
2022-10-23T09:02:16.096Z,101173.03
2022-10-23T09:04:43.117Z,101174.75
2022-10-23T09:07:29.644Z,101176.37
2022-10-23T09:10:08.092Z,101168.44
2022-10-23T09:12:34.660Z,101169.25
2022-10-23T09:15:20.348Z,101163.03
2022-10-23T09:17:47.820Z,101165.66
2022-10-23T09:20:21.113Z,101173.53
2022-10-23T09:22:54.307Z,101171.81
2022-10-23T09:25:29.502Z,101171.75
2022-10-23T09:28:00.095Z,101170.81
2022-10-23T09:30:37.880Z,101177.88
2022-10-23T09:33:14.320Z,101176.09
2022-10-23T09:36:00.179Z,101180.53
2022-10-23T09:38:36.537Z,101184.91
2022-10-23T09:41:08.136Z,101184.06
2022-10-23T09:43:34.777Z,101188.50
2022-10-23T09:46:02.955Z,101192.94
2022-10-23T09:48:29.547Z,101179.75
2022-10-23T09:51:03.512Z,101183.31
2022-10-23T09:53:35.040Z,101187.75
2022-10-23T09:56:26.505Z,101189.50
2022-10-23T09:59:02.956Z,101187.75
2022-10-23T10:01:32.770Z,101188.66
2022-10-23T10:03:59.578Z,101186.94
2022-10-23T10:06:31.039Z,101186.94
2022-10-23T10:08:59.233Z,101185.13
2022-10-23T10:11:52.963Z,101174.59
2022-10-23T10:14:44.549Z,101181.63
2022-10-23T10:17:31.310Z,101176.37
2022-10-23T10:20:06.950Z,101168.47
2022-10-23T10:22:35.525Z,101155.28
2022-10-23T10:25:24.149Z,101154.41
2022-10-23T10:28:15.705Z,101148.25
2022-10-23T10:31:09.740Z,101142.09
2022-10-23T10:33:58.171Z,101153.62
2022-10-23T10:36:34.200Z,101142.16
2022-10-23T10:39:01.435Z,101145.66
2022-10-23T10:42:06.244Z,101144.81
2022-10-23T10:44:32.696Z,101149.19
2022-10-23T10:47:21.170Z,101149.25
2022-10-23T10:49:53.895Z,101145.75
2022-10-23T10:52:51.778Z,101134.34
2022-10-23T10:55:32.475Z,101135.31
2022-10-23T10:58:16.380Z,101130.94
2022-10-23T11:00:43.241Z,101129.19
2022-10-23T11:03:41.702Z,101127.44
2022-10-23T11:06:16.725Z,101112.53
2022-10-23T11:08:56.383Z,101115.22
2022-10-23T11:11:26.940Z,101107.31
2022-10-23T11:13:54.014Z,101105.59
2022-10-23T11:16:40.765Z,101101.22
2022-10-23T11:19:18.111Z,101097.72
2022-10-23T11:22:10.890Z,101090.72
2022-10-23T11:24:49.517Z,101088.94
2022-10-23T11:27:37.604Z,101092.56
2022-10-23T11:30:13.016Z,101078.47
2022-10-23T11:32:58.283Z,101082.00
2022-10-23T11:35:30.827Z,101096.16
2022-10-23T11:38:17.682Z,101100.59
2022-10-23T11:43:50.001Z,101098.03
2022-10-23T11:46:25.600Z,101088.34
2022-10-23T11:48:52.655Z,101089.28
2022-10-23T11:51:26.161Z,101083.12
2022-10-23T11:53:52.716Z,101076.97
2022-10-23T11:56:21.851Z,101088.47
2022-10-23T11:58:58.754Z,101092.00
2022-10-23T12:01:28.308Z,101090.28
2022-10-23T12:04:14.685Z,101081.53
2022-10-23T12:06:50.285Z,101084.22
2022-10-23T12:09:31.678Z,101072.75
2022-10-23T12:12:18.046Z,101071.88
2022-10-23T12:14:51.070Z,101069.31
2022-10-23T12:17:23.437Z,101068.44
2022-10-23T12:19:54.591Z,101071.09
2022-10-23T12:22:22.372Z,101062.25
2022-10-23T12:25:03.029Z,101051.66
2022-10-23T12:27:38.115Z,101041.09
2022-10-23T12:30:23.663Z,101042.03
2022-10-23T12:33:02.215Z,101040.28
2022-10-23T12:35:47.639Z,101050.03
2022-10-23T12:38:16.416Z,101049.16
2022-10-23T12:40:46.775Z,101038.59
2022-10-23T12:43:42.134Z,101038.59
2022-10-23T12:46:17.640Z,101041.25
2022-10-23T12:48:50.860Z,101028.94
2022-10-23T12:51:26.176Z,101034.22
2022-10-23T12:53:52.849Z,101031.62
2022-10-23T12:56:19.572Z,101036.94
2022-10-23T12:58:49.647Z,101025.47
2022-10-23T13:01:33.420Z,101014.91
2022-10-23T13:04:29.935Z,101017.56
2022-10-23T13:07:00.946Z,101018.50
2022-10-23T13:09:33.389Z,101014.13
2022-10-23T13:12:00.750Z,101008.81
2022-10-23T13:14:44.512Z,101007.97
2022-10-23T13:17:11.716Z,101008.88
2022-10-23T13:19:38.511Z,101004.44
2022-10-23T13:22:14.543Z,100991.25
2022-10-23T13:24:44.235Z,100994.81
2022-10-23T13:27:33.202Z,100992.16
2022-10-23T13:30:00.056Z,100989.59
2022-10-23T13:32:29.099Z,100995.78
2022-10-23T13:35:04.207Z,100984.34
2022-10-23T13:37:37.080Z,100980.81
2022-10-23T13:40:17.722Z,100980.88
2022-10-23T13:42:44.458Z,100986.16
2022-10-23T13:45:15.130Z,100983.50
2022-10-23T13:47:42.106Z,100978.28
2022-10-23T13:50:11.192Z,100973.00
2022-10-23T13:52:37.932Z,100970.38
2022-10-23T13:55:13.697Z,100972.16
2022-10-23T13:57:40.532Z,100980.09
2022-10-23T14:00:08.003Z,100969.50
2022-10-23T14:02:34.636Z,100969.56
2022-10-23T14:05:01.276Z,100961.63
2022-10-23T14:07:27.823Z,100969.56
2022-10-23T14:09:54.362Z,100963.41
2022-10-23T14:12:20.940Z,100965.19
2022-10-23T14:14:51.756Z,100965.19
2022-10-23T14:17:19.121Z,100960.81
2022-10-23T14:19:45.854Z,100945.84
2022-10-23T14:22:12.452Z,100944.97
2022-10-23T14:24:39.113Z,100942.34
2022-10-23T14:27:05.973Z,100941.47
2022-10-23T14:29:32.653Z,100941.47
2022-10-23T14:31:59.290Z,100939.75
2022-10-23T14:34:25.984Z,100937.09
2022-10-23T14:37:07.279Z,100933.59
2022-10-23T14:39:34.610Z,100938.03
2022-10-23T14:42:01.180Z,100932.72
2022-10-23T14:44:27.956Z,100935.37
2022-10-23T14:46:54.614Z,100933.62
2022-10-23T14:49:21.255Z,100930.97
2022-10-23T14:51:47.821Z,100918.66
2022-10-23T14:54:15.740Z,100918.66
2022-10-23T14:56:42.368Z,100904.56
2022-10-23T14:59:10.704Z,100907.28
2022-10-23T15:01:45.131Z,100922.28
2022-10-23T15:04:14.863Z,100915.22
2022-10-23T15:06:41.999Z,100914.38
2022-10-23T15:09:08.623Z,100913.50
2022-10-23T15:11:35.221Z,100913.50
2022-10-23T15:14:02.001Z,100917.94
2022-10-23T15:16:28.707Z,100906.44
2022-10-23T15:18:55.466Z,100899.41
2022-10-23T15:21:23.092Z,100890.56
2022-10-23T15:23:49.719Z,100880.91
2022-10-23T15:26:22.070Z,100871.19
2022-10-23T15:28:54.685Z,100873.91
2022-10-23T15:31:45.681Z,100873.91
2022-10-23T15:34:14.788Z,100879.19
2022-10-23T15:36:42.593Z,100879.19
2022-10-23T15:39:09.836Z,100890.69
2022-10-23T15:41:37.293Z,100891.56
2022-10-23T15:44:04.202Z,100891.63
2022-10-23T15:46:30.822Z,100896.00
2022-10-23T15:48:57.437Z,100889.84
2022-10-23T15:51:25.322Z,100898.63
2022-10-23T15:53:59.603Z,100899.56
2022-10-23T15:56:26.282Z,100894.25
2022-10-23T15:58:52.841Z,100905.69
2022-10-23T16:01:19.593Z,100895.16
2022-10-23T16:03:46.807Z,100898.72
2022-10-23T16:06:14.187Z,100893.44
2022-10-23T16:08:40.886Z,100895.16
2022-10-23T16:11:16.741Z,100901.37
2022-10-23T16:13:43.722Z,100906.66
2022-10-23T16:16:12.853Z,100914.59
2022-10-23T16:18:39.472Z,100908.44
2022-10-23T16:21:06.597Z,100909.28
2022-10-23T16:23:33.564Z,100918.16
2022-10-23T16:26:06.242Z,100912.88
2022-10-23T16:28:32.979Z,100913.72
2022-10-23T16:30:59.758Z,100921.66
2022-10-23T16:33:29.483Z,100936.66
2022-10-23T16:36:01.191Z,100944.59
2022-10-23T16:38:27.733Z,100947.31
2022-10-23T16:40:54.303Z,100942.88
2022-10-23T16:43:21.024Z,100940.22
2022-10-23T16:45:47.656Z,100943.75
2022-10-23T16:48:14.241Z,100933.19
2022-10-23T16:50:41.260Z,100927.03
2022-10-23T16:53:07.938Z,100932.31
2022-10-23T16:55:34.506Z,100927.03
2022-10-23T16:58:01.099Z,100925.31
2022-10-23T17:00:34.815Z,100940.31
2022-10-23T17:03:03.147Z,100947.34
2022-10-23T17:05:33.454Z,100949.13
2022-10-23T17:08:00.013Z,100953.53
2022-10-23T17:10:26.580Z,100957.97
2022-10-23T17:12:53.196Z,100963.25
2022-10-23T17:15:20.920Z,100958.87
2022-10-23T17:17:47.475Z,100961.53
2022-10-23T17:20:14.047Z,100956.25
2022-10-23T17:22:40.638Z,100950.09
2022-10-23T17:25:08.031Z,100952.75
2022-10-23T17:27:34.595Z,100943.97
2022-10-23T17:30:01.130Z,100955.41
2022-10-23T17:32:28.214Z,100944.81
2022-10-23T17:34:54.813Z,100938.69
2022-10-23T17:37:21.368Z,100938.69
2022-10-23T17:39:47.968Z,100938.69
2022-10-23T17:42:14.556Z,100940.47
2022-10-23T17:44:41.177Z,100943.09
2022-10-23T17:47:07.745Z,100942.31
2022-10-23T17:49:34.320Z,100942.31
2022-10-23T17:52:01.852Z,100937.00
2022-10-23T17:54:28.531Z,100924.66
2022-10-23T17:56:55.223Z,100921.16
2022-10-23T17:59:22.030Z,100914.09
2022-10-23T18:01:48.991Z,100915.88
2022-10-23T18:04:16.562Z,100918.53
2022-10-23T18:06:45.312Z,100915.88
2022-10-23T18:09:12.031Z,100916.81
2022-10-23T18:11:45.361Z,100918.59
2022-10-23T18:14:15.054Z,100929.16
2022-10-23T18:16:41.830Z,100930.03
2022-10-23T18:19:08.814Z,100917.72
2022-10-23T18:21:35.934Z,100928.28
2022-10-23T18:24:02.543Z,100933.59
2022-10-23T18:26:30.183Z,100939.75
2022-10-23T18:28:58.224Z,100938.00
2022-10-23T18:31:25.862Z,100930.03
2022-10-23T18:33:59.009Z,100933.59
2022-10-23T18:36:27.152Z,100935.37
2022-10-23T18:41:28.098Z,100929.22
2022-10-23T18:43:54.716Z,100925.72
2022-10-23T18:46:21.798Z,100918.63
2022-10-23T18:48:48.468Z,100916.88
2022-10-23T18:51:16.244Z,100914.25
2022-10-23T18:53:43.335Z,100915.13
2022-10-23T18:56:09.919Z,100916.88
2022-10-23T18:58:36.503Z,100910.72
2022-10-23T19:01:06.364Z,100912.50
2022-10-23T19:03:33.472Z,100912.50
2022-10-23T19:06:00.056Z,100922.22
2022-10-23T19:08:26.639Z,100916.06
2022-10-23T19:10:53.207Z,100921.37
2022-10-23T19:13:20.879Z,100909.94
2022-10-23T19:15:47.477Z,100909.06
2022-10-23T19:18:14.019Z,100914.34
2022-10-23T19:20:41.507Z,100916.06
2022-10-23T19:23:09.904Z,100909.94
2022-10-23T19:25:37.291Z,100921.44
2022-10-23T19:28:04.107Z,100918.78
2022-10-23T19:30:30.666Z,100915.28
2022-10-23T19:32:57.283Z,100919.69
2022-10-23T19:35:23.922Z,100918.78
2022-10-23T19:37:50.548Z,100917.06
2022-10-23T19:40:17.117Z,100917.06
2022-10-23T19:42:44.250Z,100919.69
2022-10-23T19:45:12.909Z,100920.56
2022-10-23T19:47:39.864Z,100917.06
2022-10-23T19:50:06.922Z,100911.78
2022-10-23T19:52:34.603Z,100916.16
2022-10-23T19:55:03.121Z,100907.34
2022-10-23T19:57:35.619Z,100917.94
2022-10-23T20:00:02.414Z,100915.31
2022-10-23T20:02:29.220Z,100922.34
2022-10-23T20:04:56.181Z,100917.09
2022-10-23T20:07:22.808Z,100923.22
2022-10-23T20:09:49.490Z,100925.00
2022-10-23T20:12:16.047Z,100930.31
2022-10-23T20:14:42.664Z,100936.44
2022-10-23T20:17:09.249Z,100932.94
2022-10-23T20:19:35.808Z,100935.59
2022-10-23T20:22:02.552Z,100921.50
2022-10-23T20:24:29.191Z,100918.87
2022-10-23T20:26:56.017Z,100924.16
2022-10-23T20:29:25.288Z,100920.66
2022-10-23T20:31:51.933Z,100924.09
2022-10-23T20:34:19.171Z,100925.00
2022-10-23T20:36:47.390Z,100921.50
2022-10-23T20:39:24.537Z,100915.34
2022-10-23T20:41:51.395Z,100909.22
2022-10-23T20:44:18.197Z,100909.22
2022-10-23T20:46:44.890Z,100911.00
2022-10-23T20:49:12.235Z,100897.78
2022-10-23T20:51:38.788Z,100897.78
2022-10-23T20:54:08.366Z,100900.41
2022-10-23T20:56:36.535Z,100895.13
2022-10-23T20:59:11.105Z,100888.97
2022-10-23T21:01:42.843Z,100895.13
2022-10-23T21:04:11.478Z,100885.41
2022-10-23T21:06:57.459Z,100882.81
2022-10-23T21:09:24.893Z,100884.56
2022-10-23T21:11:51.450Z,100879.25
2022-10-23T21:14:18.015Z,100877.53
2022-10-23T21:16:46.468Z,100881.94
2022-10-23T21:19:14.299Z,100880.19
2022-10-23T21:21:40.849Z,100881.94
2022-10-23T21:24:09.071Z,100881.03
2022-10-23T21:26:35.716Z,100872.25
2022-10-23T21:29:17.561Z,100874.91
2022-10-23T21:31:45.515Z,100880.19
2022-10-23T21:34:12.228Z,100884.56
2022-10-23T21:36:53.924Z,100881.94
2022-10-23T21:39:25.706Z,100882.81
2022-10-23T21:41:52.272Z,100874.91
2022-10-23T21:44:18.853Z,100875.78
2022-10-23T21:46:45.747Z,100881.06
2022-10-23T21:49:12.624Z,100890.78
2022-10-23T21:51:39.419Z,100899.56
2022-10-23T21:54:07.148Z,100900.50
2022-10-23T21:56:50.419Z,100889.06
2022-10-23T21:59:18.614Z,100884.63
2022-10-23T22:01:45.972Z,100882.00
2022-10-23T22:04:14.280Z,100881.13
2022-10-23T22:06:42.315Z,100869.62
2022-10-23T22:09:08.977Z,100868.78
2022-10-23T22:11:35.631Z,100876.69
2022-10-23T22:14:02.196Z,100867.03
2022-10-23T22:16:28.764Z,100877.63
2022-10-23T22:18:55.298Z,100874.06
2022-10-23T22:21:23.571Z,100874.13
2022-10-23T22:23:50.424Z,100881.13
2022-10-23T22:26:36.092Z,100884.69
2022-10-23T22:29:07.865Z,100874.97
2022-10-23T22:31:34.754Z,100874.97
2022-10-23T22:34:13.059Z,100877.63
2022-10-23T22:36:48.462Z,100875.91
2022-10-23T22:39:17.560Z,100887.34
2022-10-23T22:41:44.224Z,100884.69
2022-10-23T22:44:11.268Z,100887.34
2022-10-23T22:46:37.852Z,100886.47
2022-10-23T22:49:08.466Z,100886.47
2022-10-23T22:51:35.118Z,100886.47
2022-10-23T22:54:04.449Z,100881.19
2022-10-23T22:56:31.788Z,100880.31
2022-10-23T22:58:58.404Z,100877.63
2022-10-23T23:01:33.361Z,100875.91
2022-10-23T23:04:08.778Z,100870.59
2022-10-23T23:06:46.773Z,100867.09
2022-10-23T23:09:17.008Z,100857.37
2022-10-23T23:11:51.927Z,100860.91
2022-10-23T23:14:22.973Z,100861.84
2022-10-23T23:16:53.334Z,100860.91
2022-10-23T23:19:19.927Z,100861.81
2022-10-23T23:21:46.494Z,100859.19
2022-10-23T23:24:13.064Z,100859.19
2022-10-23T23:26:39.770Z,100853.91
2022-10-23T23:29:06.370Z,100856.56
2022-10-23T23:31:35.046Z,100862.69
2022-10-23T23:34:01.604Z,100865.41
2022-10-23T23:36:28.387Z,100860.13
2022-10-23T23:38:55.623Z,100866.28
2022-10-23T23:41:22.398Z,100860.97
2022-10-23T23:43:49.254Z,100858.34
2022-10-23T23:46:16.123Z,100852.19
2022-10-23T23:48:47.392Z,100838.97
2022-10-23T23:51:18.002Z,100845.12
2022-10-23T23:53:44.652Z,100849.53
2022-10-23T23:56:11.231Z,100854.84
2022-10-23T23:58:37.856Z,100848.69
